Time;durP1;ratioP1;P1;durP2;ratioP2;P2;SDS_P1;SDS_P2;PMS_P1;PMS_P2;Temp;Humidity;BMP_temperature;BMP_pressure;BME280_temperature;BME280_humidity;BME280_pressure;Samples;Min_cycle;Max_cycle;Signal;HPM_P1;HPM_P2
2023/10/20 00:01:44;;;;;;;62.75;37.10;;;;;;;;;;5011808;28;20129;-81
2023/10/20 00:04:11;;;;;;;47.05;28.10;;;;;;;;;;5009285;28;20559;-81
2023/10/20 00:06:40;;;;;;;49.25;27.90;;;;;;;;;;5027123;28;20037;-79
2023/10/20 00:09:06;;;;;;;34.90;21.67;;;;;;;;;;5027656;28;20026;-81
2023/10/20 00:11:33;;;;;;;27.92;15.48;;;;;;;;;;5021420;28;20549;-80
2023/10/20 00:14:00;;;;;;;31.90;17.27;;;;;;;;;;5020472;28;20069;-80
2023/10/20 00:16:29;;;;;;;36.57;20.10;;;;;;;;;;4999670;28;20531;-81
2023/10/20 00:19:01;;;;;;;28.25;16.95;;;;;;;;;;5020477;28;20018;-81
2023/10/20 00:21:27;;;;;;;30.55;16.17;;;;;;;;;;5031099;28;20029;-82
2023/10/20 00:23:53;;;;;;;27.08;14.80;;;;;;;;;;5007332;28;20053;-81
2023/10/20 00:26:19;;;;;;;17.58;10.80;;;;;;;;;;5011494;28;20501;-81
2023/10/20 00:28:45;;;;;;;17.38;10.55;;;;;;;;;;5032516;28;20079;-81
2023/10/20 00:31:12;;;;;;;19.90;10.50;;;;;;;;;;5034988;28;20026;-80
2023/10/20 00:33:39;;;;;;;17.63;10.52;;;;;;;;;;5034748;28;20029;-80
2023/10/20 00:36:05;;;;;;;16.38;9.18;;;;;;;;;;5009193;28;20032;-80
2023/10/20 00:38:31;;;;;;;13.15;10.43;;;;;;;;;;5020822;28;20031;-80
2023/10/20 00:40:58;;;;;;;13.13;9.52;;;;;;;;;;5010801;28;20031;-81
2023/10/20 00:43:34;;;;;;;11.55;8.85;;;;;;;;;;4997225;28;20030;-82
2023/10/20 00:46:00;;;;;;;11.20;8.45;;;;;;;;;;5034716;28;20018;-81
2023/10/20 00:48:26;;;;;;;8.75;7.05;;;;;;;;;;5046563;28;20036;-81
2023/10/20 00:50:52;;;;;;;9.65;6.45;;;;;;;;;;5032418;28;20018;-81
2023/10/20 00:53:19;;;;;;;10.27;7.47;;;;;;;;;;5024868;28;20108;-81
2023/10/20 00:55:45;;;;;;;10.40;7.85;;;;;;;;;;5036935;28;20025;-81
2023/10/20 00:58:11;;;;;;;9.80;7.88;;;;;;;;;;5047109;28;20025;-81
2023/10/20 01:00:37;;;;;;;10.40;7.07;;;;;;;;;;5037457;28;20043;-81
2023/10/20 01:03:04;;;;;;;10.95;7.35;;;;;;;;;;5034998;28;20058;-80
2023/10/20 01:05:31;;;;;;;11.73;8.15;;;;;;;;;;5034512;28;20080;-80
2023/10/20 01:07:58;;;;;;;11.52;9.18;;;;;;;;;;5034526;28;20370;-81
2023/10/20 01:10:24;;;;;;;12.50;9.35;;;;;;;;;;5034770;28;20483;-80
2023/10/20 01:12:50;;;;;;;13.27;9.00;;;;;;;;;;5036210;28;20044;-81
2023/10/20 01:15:16;;;;;;;13.10;9.38;;;;;;;;;;5029679;28;20064;-79
2023/10/20 01:17:42;;;;;;;12.95;9.18;;;;;;;;;;5027882;28;20028;-79
2023/10/20 01:20:09;;;;;;;12.85;10.07;;;;;;;;;;5016049;28;20028;-80
2023/10/20 01:22:35;;;;;;;11.77;8.93;;;;;;;;;;5016198;28;20052;-80
2023/10/20 01:25:03;;;;;;;12.40;9.95;;;;;;;;;;5033614;28;20014;-81
2023/10/20 01:27:29;;;;;;;;;;;;;;;;;;5044676;28;20021;-82
2023/10/20 01:29:55;;;;;;;13.15;9.40;;;;;;;;;;5037280;28;19936;-81
2023/10/20 01:32:21;;;;;;;15.82;10.77;;;;;;;;;;5016035;28;20108;-81
2023/10/20 01:34:47;;;;;;;12.40;9.65;;;;;;;;;;5028490;28;20044;-82
2023/10/20 01:37:15;;;;;;;14.52;10.27;;;;;;;;;;5007215;28;20022;-81
2023/10/20 01:39:41;;;;;;;15.25;10.48;;;;;;;;;;5033451;28;20025;-80
2023/10/20 01:42:08;;;;;;;14.80;11.15;;;;;;;;;;5035322;28;20069;-81
2023/10/20 01:44:34;;;;;;;13.15;10.65;;;;;;;;;;5042488;28;20104;-80
2023/10/20 01:47:00;;;;;;;15.13;11.70;;;;;;;;;;5016012;28;20022;-80
2023/10/20 01:49:27;;;;;;;15.07;10.93;;;;;;;;;;5033618;28;20049;-80
2023/10/20 01:51:53;;;;;;;15.23;11.48;;;;;;;;;;5033433;28;20104;-80
2023/10/20 01:54:19;;;;;;;13.38;10.85;;;;;;;;;;5033558;28;20067;-82
2023/10/20 01:56:45;;;;;;;17.52;11.15;;;;;;;;;;5033523;28;20105;-81
2023/10/20 01:59:12;;;;;;;15.77;12.25;;;;;;;;;;5019685;28;20076;-80
2023/10/20 02:01:39;;;;;;;15.10;12.20;;;;;;;;;;5029469;28;20041;-82
2023/10/20 02:04:05;;;;;;;19.75;13.77;;;;;;;;;;5013289;28;20497;-81
2023/10/20 02:06:31;;;;;;;16.42;12.27;;;;;;;;;;5033165;28;20056;-82
2023/10/20 02:08:58;;;;;;;17.33;11.20;;;;;;;;;;5034788;28;20021;-81
2023/10/20 02:11:24;;;;;;;15.05;11.38;;;;;;;;;;5019311;28;20022;-81
2023/10/20 02:13:50;;;;;;;16.85;11.07;;;;;;;;;;5027203;28;20029;-80
2023/10/20 02:16:16;;;;;;;14.48;11.15;;;;;;;;;;5018127;28;20034;-81
2023/10/20 02:18:44;;;;;;;17.05;12.45;;;;;;;;;;5022636;28;20128;-80
2023/10/20 02:21:11;;;;;;;17.00;12.27;;;;;;;;;;5032989;28;20045;-80
2023/10/20 02:23:40;;;;;;;19.05;12.80;;;;;;;;;;5032878;28;20354;-79
2023/10/20 02:26:08;;;;;;;18.77;12.75;;;;;;;;;;5015027;28;20033;-81
2023/10/20 02:28:34;;;;;;;;;;;;;;;;;;5033285;28;20025;-80
2023/10/20 02:31:01;;;;;;;16.13;11.63;;;;;;;;;;5004259;28;20317;-81
2023/10/20 02:33:27;;;;;;;17.75;13.38;;;;;;;;;;5028333;28;20023;-80
2023/10/20 02:35:56;;;;;;;15.98;11.70;;;;;;;;;;5026362;28;20111;-80
2023/10/20 02:38:22;;;;;;;20.83;12.43;;;;;;;;;;5032643;28;20022;-80
2023/10/20 02:40:52;;;;;;;16.17;11.98;;;;;;;;;;5032680;28;20037;-80
2023/10/20 02:43:18;;;;;;;14.80;11.60;;;;;;;;;;5034002;28;20030;-79
2023/10/20 02:45:52;;;;;;;16.23;11.80;;;;;;;;;;5037832;28;20044;-79
2023/10/20 02:48:19;;;;;;;17.20;11.80;;;;;;;;;;5037386;28;20017;-80
2023/10/20 02:50:45;;;;;;;17.10;11.90;;;;;;;;;;5026280;28;20026;-80
2023/10/20 02:53:13;;;;;;;17.23;12.38;;;;;;;;;;5032173;28;20486;-81
2023/10/20 02:55:40;;;;;;;15.43;11.95;;;;;;;;;;5032043;28;20386;-80
2023/10/20 02:58:07;;;;;;;15.23;11.63;;;;;;;;;;5032271;28;20018;-80
2023/10/20 03:00:33;;;;;;;16.73;11.30;;;;;;;;;;5014237;28;20040;-81
2023/10/20 03:03:00;;;;;;;14.77;10.93;;;;;;;;;;5032138;28;20021;-82
2023/10/20 03:05:32;;;;;;;17.05;12.02;;;;;;;;;;5020893;28;20052;-80
2023/10/20 03:07:58;;;;;;;16.70;10.95;;;;;;;;;;5032063;28;20437;-81
2023/10/20 03:10:25;;;;;;;14.40;11.20;;;;;;;;;;5014368;28;20045;-80
2023/10/20 03:12:51;;;;;;;15.53;11.07;;;;;;;;;;5032061;28;20017;-80
2023/10/20 03:15:17;;;;;;;16.77;11.52;;;;;;;;;;5024128;28;20132;-80
2023/10/20 03:17:44;;;;;;;14.27;10.02;;;;;;;;;;5008261;28;20029;-80
2023/10/20 03:20:14;;;;;;;11.65;9.63;;;;;;;;;;5010041;28;20168;-81
2023/10/20 03:22:41;;;;;;;11.40;9.00;;;;;;;;;;5031824;28;20463;-81
2023/10/20 03:25:10;;;;;;;11.73;10.00;;;;;;;;;;5031742;28;20021;-80
2023/10/20 03:27:37;;;;;;;13.35;9.77;;;;;;;;;;5031911;28;20048;-81
2023/10/20 03:30:05;;;;;;;13.88;10.85;;;;;;;;;;5029764;28;20028;-81
2023/10/20 03:32:31;;;;;;;;;;;;;;;;;;5022152;28;20028;-81
2023/10/20 03:34:57;;;;;;;14.20;6.00;;;;;;;;;;5024353;28;19905;-81
2023/10/20 03:37:23;;;;;;;10.68;6.80;;;;;;;;;;5031920;28;20022;-81
2023/10/20 03:39:50;;;;;;;10.75;6.90;;;;;;;;;;5031842;28;20029;-81
2023/10/20 03:42:16;;;;;;;8.55;5.00;;;;;;;;;;5014052;28;20065;-81
2023/10/20 03:44:43;;;;;;;8.50;5.05;;;;;;;;;;5032161;28;20499;-82
2023/10/20 03:47:09;;;;;;;6.90;5.07;;;;;;;;;;5010454;28;20060;-82
2023/10/20 03:49:36;;;;;;;7.05;4.95;;;;;;;;;;5031792;28;20486;-82
2023/10/20 03:52:06;;;;;;;8.10;5.18;;;;;;;;;;5031749;28;20471;-81
2023/10/20 03:54:33;;;;;;;8.68;5.13;;;;;;;;;;5033899;28;20076;-82
2023/10/20 03:56:59;;;;;;;8.43;5.68;;;;;;;;;;5033359;28;20053;-81
2023/10/20 03:59:26;;;;;;;11.63;6.40;;;;;;;;;;5025366;28;20018;-83
2023/10/20 04:01:55;;;;;;;8.27;5.60;;;;;;;;;;5007679;28;20491;-81
2023/10/20 04:04:22;;;;;;;9.40;6.35;;;;;;;;;;5030402;28;20073;-81
2023/10/20 04:06:49;;;;;;;7.88;5.35;;;;;;;;;;5014662;28;20032;-83
2023/10/20 04:09:17;;;;;;;;;;;;;;;;;;5048822;28;20014;-83
2023/10/20 04:11:44;;;;;;;12.93;7.03;;;;;;;;;;5050857;28;19905;-82
2023/10/20 04:14:10;;;;;;;13.35;8.38;;;;;;;;;;5030099;28;20048;-82
2023/10/20 04:16:41;;;;;;;14.00;6.80;;;;;;;;;;5053201;28;20021;-83
2023/10/20 04:19:10;;;;;;;13.65;7.22;;;;;;;;;;5035901;28;20021;-82
2023/10/20 04:21:38;;;;;;;16.45;7.75;;;;;;;;;;5034611;28;20036;-81
2023/10/20 04:24:07;;;;;;;16.70;8.32;;;;;;;;;;5038466;28;20509;-81
2023/10/20 04:26:35;;;;;;;19.77;9.73;;;;;;;;;;5007114;28;20027;-82
2023/10/20 04:29:23;;;;;;;13.38;8.38;;;;;;;;;;5033650;28;20022;-82
2023/10/20 04:44:55;;;;;;;12.95;8.35;;;;;;;;;;4982792;28;20403;-83
2023/10/20 04:51:18;;;;;;;11.80;7.10;;;;;;;;;;5035974;28;20087;-83
2023/10/20 04:54:07;;;;;;;8.05;5.00;;;;;;;;;;5036644;28;20033;-82
2023/10/20 04:56:57;;;;;;;7.85;5.00;;;;;;;;;;5044753;28;20063;-84
2023/10/20 04:59:24;;;;;;;9.77;6.30;;;;;;;;;;5040161;28;20488;-83
2023/10/20 05:01:57;;;;;;;12.38;8.50;;;;;;;;;;5036858;28;20171;-85
2023/10/20 05:04:28;;;;;;;10.85;7.00;;;;;;;;;;5036680;28;20482;-83
2023/10/20 05:07:05;;;;;;;13.95;10.10;;;;;;;;;;5024667;28;20052;-85
2023/10/20 05:09:33;;;;;;;21.55;15.23;;;;;;;;;;5016410;28;20026;-85
2023/10/20 05:11:59;;;;;;;22.55;12.63;;;;;;;;;;5016039;28;20849;-84
2023/10/20 05:14:27;;;;;;;27.35;15.50;;;;;;;;;;4997553;28;20061;-82
2023/10/20 05:16:55;;;;;;;26.95;16.30;;;;;;;;;;5020134;28;20018;-83
2023/10/20 05:19:23;;;;;;;26.52;16.67;;;;;;;;;;4997378;28;20523;-84
2023/10/20 05:21:50;;;;;;;41.15;28.80;;;;;;;;;;5014878;28;20041;-84
2023/10/20 05:24:16;;;;;;;27.33;18.17;;;;;;;;;;5014389;28;20046;-83
2023/10/20 05:26:45;;;;;;;32.20;21.52;;;;;;;;;;5006311;28;20352;-83
2023/10/20 05:29:12;;;;;;;29.63;18.25;;;;;;;;;;5020515;28;20140;-83
2023/10/20 05:31:38;;;;;;;35.95;21.75;;;;;;;;;;5017483;28;20029;-84
2023/10/20 05:34:04;;;;;;;27.25;19.58;;;;;;;;;;5014239;28;20097;-83
2023/10/20 05:36:30;;;;;;;30.42;20.50;;;;;;;;;;5014028;28;20033;-83
2023/10/20 05:38:56;;;;;;;37.05;20.02;;;;;;;;;;5014377;28;20052;-82
2023/10/20 05:41:22;;;;;;;28.92;19.20;;;;;;;;;;5014566;28;20038;-84
2023/10/20 05:43:52;;;;;;;36.05;20.92;;;;;;;;;;5014118;28;20029;-83
2023/10/20 05:46:18;;;;;;;32.53;18.83;;;;;;;;;;5025110;28;20376;-82
2023/10/20 05:48:44;;;;;;;32.25;19.67;;;;;;;;;;5016837;28;20022;-83
2023/10/20 05:51:11;;;;;;;32.35;20.30;;;;;;;;;;5007278;28;20055;-83
2023/10/20 05:53:37;;;;;;;31.40;19.88;;;;;;;;;;5047770;28;20087;-84
2023/10/20 05:56:03;;;;;;;30.35;19.25;;;;;;;;;;5020249;28;20018;-84
2023/10/20 05:58:32;;;;;;;29.38;18.05;;;;;;;;;;5015200;28;20486;-85
2023/10/20 06:01:04;;;;;;;26.20;19.13;;;;;;;;;;5013832;28;20070;-85
2023/10/20 06:03:30;;;;;;;28.40;18.40;;;;;;;;;;4996492;28;20022;-84
2023/10/20 06:06:06;;;;;;;25.07;19.23;;;;;;;;;;5014353;28;20076;-83
2023/10/20 06:08:32;;;;;;;38.00;25.52;;;;;;;;;;4998981;28;20026;-82
2023/10/20 06:11:05;;;;;;;29.50;19.63;;;;;;;;;;5013901;28;20026;-83
2023/10/20 06:13:35;;;;;;;25.40;15.77;;;;;;;;;;5020907;28;20389;-83
2023/10/20 06:16:08;;;;;;;19.83;12.52;;;;;;;;;;5033317;28;20042;-83
2023/10/20 06:18:35;;;;;;;16.83;11.45;;;;;;;;;;5020430;28;20043;-83
2023/10/20 06:21:01;;;;;;;13.17;9.73;;;;;;;;;;5034248;28;20398;-84
2023/10/20 06:23:27;;;;;;;8.95;5.88;;;;;;;;;;5046153;28;20251;-83
2023/10/20 06:25:53;;;;;;;7.47;5.45;;;;;;;;;;5027119;28;20028;-83
2023/10/20 06:28:19;;;;;;;11.35;6.38;;;;;;;;;;5018340;28;20022;-83
2023/10/20 06:30:47;;;;;;;9.15;7.00;;;;;;;;;;5032464;28;20025;-83
2023/10/20 06:35:52;;;;;;;11.00;8.35;;;;;;;;;;5033450;28;19912;-84
2023/10/20 06:38:21;;;;;;;7.57;6.00;;;;;;;;;;5033248;28;20029;-84
2023/10/20 06:40:47;;;;;;;6.97;5.32;;;;;;;;;;5033421;28;20056;-84
2023/10/20 06:43:16;;;;;;;13.07;6.57;;;;;;;;;;5033472;28;20028;-83
2023/10/20 06:45:42;;;;;;;9.30;6.75;;;;;;;;;;5033485;28;20063;-83
2023/10/20 06:48:09;;;;;;;9.65;6.03;;;;;;;;;;5019788;28;20028;-84
2023/10/20 06:50:36;;;;;;;7.75;4.90;;;;;;;;;;5036127;28;20021;-85
2023/10/20 06:53:02;;;;;;;10.48;5.18;;;;;;;;;;5033304;28;20112;-82
2023/10/20 06:55:29;;;;;;;8.10;5.00;;;;;;;;;;5033058;28;20032;-83
2023/10/20 06:57:55;;;;;;;8.27;5.60;;;;;;;;;;5032979;28;20113;-84
2023/10/20 07:00:21;;;;;;;8.45;5.63;;;;;;;;;;5014494;28;20108;-84
2023/10/20 07:02:47;;;;;;;10.70;6.00;;;;;;;;;;5032401;28;20029;-83
2023/10/20 07:05:14;;;;;;;8.77;5.80;;;;;;;;;;5014422;28;20188;-84
2023/10/20 07:07:40;;;;;;;10.00;5.68;;;;;;;;;;5028320;28;20036;-82
2023/10/20 07:10:10;;;;;;;10.82;4.80;;;;;;;;;;5032111;28;20053;-82
2023/10/20 07:12:37;;;;;;;6.45;4.78;;;;;;;;;;5031967;28;20048;-83
2023/10/20 07:15:05;;;;;;;10.23;6.22;;;;;;;;;;5012393;28;20042;-83
2023/10/20 07:17:32;;;;;;;10.88;6.55;;;;;;;;;;5007038;28;20435;-84
2023/10/20 07:19:58;;;;;;;9.50;5.93;;;;;;;;;;5032078;28;20018;-83
2023/10/20 07:22:26;;;;;;;7.85;4.97;;;;;;;;;;5015041;28;20041;-85
2023/10/20 07:24:52;;;;;;;8.45;5.03;;;;;;;;;;5019934;28;20075;-84
2023/10/20 07:27:19;;;;;;;5.95;5.00;;;;;;;;;;5015420;28;20030;-84
2023/10/20 07:29:45;;;;;;;8.43;6.10;;;;;;;;;;4997398;28;20028;-84
2023/10/20 07:32:12;;;;;;;7.00;5.75;;;;;;;;;;5020355;28;20026;-83
2023/10/20 07:34:38;;;;;;;7.77;5.77;;;;;;;;;;5015584;28;20080;-85
2023/10/20 07:37:06;;;;;;;12.10;8.95;;;;;;;;;;4993982;28;20026;-85
2023/10/20 07:39:34;;;;;;;9.25;5.75;;;;;;;;;;5012496;28;20018;-83
2023/10/20 07:42:00;;;;;;;6.75;5.85;;;;;;;;;;5017238;28;20044;-84
2023/10/20 07:44:26;;;;;;;10.55;5.32;;;;;;;;;;5018456;28;20026;-84
2023/10/20 07:46:53;;;;;;;9.15;6.57;;;;;;;;;;5004457;28;20025;-86
2023/10/20 07:49:19;;;;;;;9.45;6.20;;;;;;;;;;5024827;28;20014;-84
2023/10/20 07:51:45;;;;;;;8.27;6.50;;;;;;;;;;5017848;28;20091;-85
2023/10/20 07:54:12;;;;;;;11.93;8.82;;;;;;;;;;5014658;28;20022;-85
2023/10/20 07:56:38;;;;;;;12.52;8.23;;;;;;;;;;5020422;28;20030;-85
2023/10/20 07:59:05;;;;;;;9.65;6.85;;;;;;;;;;5013401;28;20081;-87
2023/10/20 08:01:31;;;;;;;13.85;7.97;;;;;;;;;;5002640;28;20065;-86
2023/10/20 08:03:57;;;;;;;10.18;6.97;;;;;;;;;;5021123;28;20101;-86
2023/10/20 08:06:24;;;;;;;7.95;6.43;;;;;;;;;;5019283;28;20495;-84
2023/10/20 08:08:50;;;;;;;11.32;5.82;;;;;;;;;;5016587;28;20383;-84
2023/10/20 08:11:16;;;;;;;9.45;6.00;;;;;;;;;;5028519;28;20018;-85
2023/10/20 08:13:50;;;;;;;6.63;5.55;;;;;;;;;;5026212;28;20026;-84
2023/10/20 08:16:16;;;;;;;7.20;6.30;;;;;;;;;;5012752;28;20072;-84
2023/10/20 08:18:42;;;;;;;7.95;5.85;;;;;;;;;;4994734;28;20169;-84
2023/10/20 08:21:09;;;;;;;10.38;7.90;;;;;;;;;;5006491;28;20033;-84
2023/10/20 08:23:39;;;;;;;8.70;6.95;;;;;;;;;;5026469;28;20081;-86
2023/10/20 08:26:05;;;;;;;7.82;6.68;;;;;;;;;;5007124;28;20029;-85
2023/10/20 08:28:31;;;;;;;9.25;6.30;;;;;;;;;;5014103;28;20093;-86
2023/10/20 08:31:07;;;;;;;10.65;6.72;;;;;;;;;;5014644;28;20107;-86
2023/10/20 08:33:33;;;;;;;8.05;6.55;;;;;;;;;;4997237;28;20061;-88
2023/10/20 08:36:00;;;;;;;10.73;6.60;;;;;;;;;;5015498;28;20014;-85
2023/10/20 08:38:26;;;;;;;8.35;5.72;;;;;;;;;;5015150;28;20034;-89
2023/10/20 08:40:53;;;;;;;8.60;6.72;;;;;;;;;;5022246;28;20049;-84
2023/10/20 08:43:19;;;;;;;8.73;6.68;;;;;;;;;;5013117;28;20017;-84
2023/10/20 08:45:46;;;;;;;11.32;7.00;;;;;;;;;;4999841;28;20029;-87
2023/10/20 08:48:12;;;;;;;8.68;7.03;;;;;;;;;;5014013;28;20092;-85
2023/10/20 08:50:39;;;;;;;11.77;7.93;;;;;;;;;;5024598;28;20560;-84
2023/10/20 08:53:05;;;;;;;10.20;8.70;;;;;;;;;;4997352;28;20128;-84
2023/10/20 08:55:32;;;;;;;9.70;7.45;;;;;;;;;;5021740;28;20025;-86
2023/10/20 08:57:58;;;;;;;14.20;8.55;;;;;;;;;;5039995;28;20036;-91
2023/10/20 09:00:24;;;;;;;15.30;8.18;;;;;;;;;;5050255;28;20026;-86
2023/10/20 09:02:50;;;;;;;13.70;10.90;;;;;;;;;;5038575;28;20415;-84
2023/10/20 09:05:22;;;;;;;13.50;9.23;;;;;;;;;;5030668;28;20029;-86
2023/10/20 09:07:52;;;;;;;18.73;11.18;;;;;;;;;;5017193;28;20104;-84
2023/10/20 09:10:18;;;;;;;16.27;11.52;;;;;;;;;;5016364;28;20037;-83
2023/10/20 09:12:44;;;;;;;15.43;11.10;;;;;;;;;;5014527;28;20566;-84
2023/10/20 09:15:11;;;;;;;18.15;11.73;;;;;;;;;;4997494;28;20517;-83
2023/10/20 09:17:37;;;;;;;18.38;13.85;;;;;;;;;;5018083;28;20040;-85
2023/10/20 09:20:07;;;;;;;21.60;12.52;;;;;;;;;;5005869;28;20405;-85
2023/10/20 09:22:33;;;;;;;17.75;12.10;;;;;;;;;;5018525;28;20036;-83
2023/10/20 09:24:59;;;;;;;19.30;13.70;;;;;;;;;;5021289;28;20021;-85
2023/10/20 09:27:26;;;;;;;20.55;14.15;;;;;;;;;;5022126;28;20044;-86
2023/10/20 09:29:53;;;;;;;18.45;13.55;;;;;;;;;;5022604;28;20061;-87
2023/10/20 09:32:19;;;;;;;;;;;;;;;;;;5021327;28;20021;-85
2023/10/20 09:34:45;;;;;;;24.80;15.40;;;;;;;;;;5026403;28;19913;-84
2023/10/20 09:37:12;;;;;;;21.80;15.68;;;;;;;;;;5036551;28;20021;-84
2023/10/20 09:39:40;;;;;;;25.52;16.92;;;;;;;;;;5011892;28;20022;-84
2023/10/20 09:42:06;;;;;;;;;;;;;;;;;;4998564;28;20491;-85
2023/10/20 09:44:42;;;;;;;26.90;16.85;;;;;;;;;;5025100;28;20000;-86
2023/10/20 09:47:11;;;;;;;24.83;17.00;;;;;;;;;;5028272;28;20037;-84
2023/10/20 09:49:39;;;;;;;20.77;15.35;;;;;;;;;;5010114;28;20120;-86
2023/10/20 09:52:05;;;;;;;;;;;;;;;;;;5031767;28;20439;-86
2023/10/20 09:54:34;;;;;;;24.50;16.23;;;;;;;;;;5028193;28;19905;-85
2023/10/20 09:57:01;;;;;;;22.13;16.17;;;;;;;;;;5025055;28;20057;-85
2023/10/20 09:59:27;;;;;;;22.00;17.77;;;;;;;;;;5025584;28;20034;-84
2023/10/20 10:01:54;;;;;;;22.70;15.60;;;;;;;;;;5016004;28;20037;-84
2023/10/20 10:04:28;;;;;;;19.13;16.17;;;;;;;;;;5040170;28;20034;-84
2023/10/20 10:06:55;;;;;;;21.17;16.00;;;;;;;;;;5022060;28;20030;-83
2023/10/20 10:09:21;;;;;;;26.33;16.33;;;;;;;;;;5000895;28;20022;-85
2023/10/20 10:11:49;;;;;;;24.67;15.13;;;;;;;;;;5029688;28;20383;-84
2023/10/20 10:14:22;;;;;;;16.70;12.55;;;;;;;;;;5005894;28;20050;-84
2023/10/20 10:16:50;;;;;;;18.00;12.98;;;;;;;;;;5024257;28;20562;-84
2023/10/20 10:19:17;;;;;;;14.50;12.55;;;;;;;;;;5015981;28;20066;-83
2023/10/20 10:21:48;;;;;;;18.00;13.43;;;;;;;;;;5012091;28;20034;-84
2023/10/20 10:24:16;;;;;;;15.98;11.75;;;;;;;;;;5030220;28;20486;-83
2023/10/20 10:26:46;;;;;;;16.65;10.57;;;;;;;;;;5032507;28;20093;-83
2023/10/20 10:29:12;;;;;;;13.68;9.55;;;;;;;;;;5033361;28;20383;-86
2023/10/20 10:31:38;;;;;;;12.45;9.45;;;;;;;;;;5024793;28;20025;-86
2023/10/20 10:34:05;;;;;;;10.68;8.63;;;;;;;;;;5041490;28;20092;-84
2023/10/20 10:36:42;;;;;;;9.38;6.80;;;;;;;;;;5038449;28;20117;-87
2023/10/20 10:39:08;;;;;;;11.15;8.80;;;;;;;;;;5003520;28;20497;-86
2023/10/20 10:41:34;;;;;;;12.25;7.97;;;;;;;;;;5022665;28;20120;-91
2023/10/20 10:44:01;;;;;;;8.27;5.47;;;;;;;;;;5028903;28;20025;-89
2023/10/20 10:46:36;;;;;;;8.20;6.47;;;;;;;;;;5011739;28;20034;-91
2023/10/20 10:49:08;;;;;;;10.65;7.38;;;;;;;;;;5014225;28;20053;-88
2023/10/20 10:51:41;;;;;;;8.23;5.93;;;;;;;;;;5025226;28;20014;-85
2023/10/20 10:54:07;;;;;;;8.68;6.93;;;;;;;;;;5016821;28;20029;-85
2023/10/20 10:56:33;;;;;;;10.73;8.05;;;;;;;;;;5032194;28;20036;-85
2023/10/20 10:59:00;;;;;;;10.57;6.78;;;;;;;;;;5010005;28;20034;-86
2023/10/20 11:01:27;;;;;;;9.15;7.40;;;;;;;;;;5018965;28;20038;-91
2023/10/20 11:03:54;;;;;;;9.07;7.07;;;;;;;;;;5003320;28;20033;-94
2023/10/20 11:06:20;;;;;;;8.18;7.05;;;;;;;;;;5006362;28;20064;-88
2023/10/20 11:08:49;;;;;;;12.32;8.52;;;;;;;;;;5030855;28;20025;-92
2023/10/20 11:11:16;;;;;;;11.95;8.25;;;;;;;;;;5012288;28;20052;-91
2023/10/20 11:13:42;;;;;;;10.05;8.57;;;;;;;;;;5029886;28;20080;-88
2023/10/20 11:16:09;;;;;;;15.70;9.90;;;;;;;;;;5031826;28;20060;-89
2023/10/20 11:18:35;;;;;;;12.17;8.63;;;;;;;;;;5026431;28;20109;-88
2023/10/20 11:21:04;;;;;;;15.45;10.25;;;;;;;;;;5030486;28;20065;-91
2023/10/20 11:23:32;;;;;;;10.90;8.95;;;;;;;;;;5021770;28;20106;-94
2023/10/20 11:25:59;;;;;;;16.17;10.80;;;;;;;;;;5010088;28;20069;-95
2023/10/20 11:28:26;;;;;;;11.00;8.25;;;;;;;;;;4983553;28;20030;-89
2023/10/20 11:30:55;;;;;;;12.18;8.43;;;;;;;;;;4949006;28;20155;-88
2023/10/20 11:33:21;;;;;;;20.25;10.90;;;;;;;;;;4959545;28;20028;-88
2023/10/20 11:35:47;;;;;;;11.50;8.52;;;;;;;;;;4955210;28;20066;-90
2023/10/20 11:38:16;;;;;;;13.30;8.32;;;;;;;;;;4973484;28;20102;-89
2023/10/20 11:40:43;;;;;;;10.73;7.78;;;;;;;;;;4966117;28;20061;-87
2023/10/20 11:43:11;;;;;;;9.88;6.72;;;;;;;;;;4967740;28;20037;-88
2023/10/20 11:45:41;;;;;;;11.20;6.47;;;;;;;;;;4993543;28;20101;-85
2023/10/20 11:48:07;;;;;;;9.57;6.75;;;;;;;;;;4982231;28;20060;-87
2023/10/20 11:50:33;;;;;;;9.23;7.50;;;;;;;;;;4975757;28;20081;-87
2023/10/20 11:52:59;;;;;;;9.95;7.40;;;;;;;;;;4974144;28;20106;-87
2023/10/20 11:55:28;;;;;;;7.78;6.60;;;;;;;;;;4969170;28;20090;-89
2023/10/20 11:57:57;;;;;;;7.85;6.70;;;;;;;;;;4956343;28;20439;-85
2023/10/20 12:00:23;;;;;;;8.80;7.93;;;;;;;;;;4958901;28;20030;-87
2023/10/20 12:02:49;;;;;;;10.30;7.53;;;;;;;;;;4950280;28;20531;-85
2023/10/20 12:05:15;;;;;;;12.48;6.70;;;;;;;;;;4950648;28;20407;-87
2023/10/20 12:07:42;;;;;;;11.02;7.57;;;;;;;;;;4960057;28;20030;-84
2023/10/20 12:10:09;;;;;;;10.18;6.70;;;;;;;;;;4939668;28;20019;-83
2023/10/20 12:12:35;;;;;;;12.75;7.88;;;;;;;;;;4994068;28;20034;-83
2023/10/20 12:15:02;;;;;;;13.68;6.22;;;;;;;;;;5012244;28;20054;-87
2023/10/20 12:17:31;;;;;;;7.40;5.50;;;;;;;;;;5002719;28;20045;-86
2023/10/20 12:19:57;;;;;;;6.15;5.28;;;;;;;;;;4999656;28;20026;-86
2023/10/20 12:22:25;;;;;;;8.85;5.68;;;;;;;;;;5018963;28;20061;-87
2023/10/20 12:24:51;;;;;;;8.75;6.65;;;;;;;;;;5007243;28;20104;-84
2023/10/20 12:27:21;;;;;;;10.43;7.28;;;;;;;;;;5016497;28;20026;-86
2023/10/20 12:29:48;;;;;;;8.77;6.55;;;;;;;;;;5024050;28;20036;-84
2023/10/20 12:32:14;;;;;;;9.70;6.35;;;;;;;;;;5020506;28;20022;-86
2023/10/20 12:34:40;;;;;;;6.57;5.78;;;;;;;;;;5018748;28;20383;-84
2023/10/20 12:37:06;;;;;;;8.13;5.80;;;;;;;;;;5019667;28;20022;-86
2023/10/20 12:39:33;;;;;;;6.93;5.70;;;;;;;;;;5020742;28;20053;-85
2023/10/20 12:42:03;;;;;;;8.60;5.70;;;;;;;;;;5026907;28;20029;-86
2023/10/20 12:44:29;;;;;;;7.97;5.00;;;;;;;;;;5027303;28;20033;-85
2023/10/20 12:46:56;;;;;;;6.53;4.97;;;;;;;;;;5026988;28;20021;-87
2023/10/20 12:49:22;;;;;;;7.80;6.00;;;;;;;;;;5025261;28;20021;-85
2023/10/20 12:51:48;;;;;;;8.20;5.80;;;;;;;;;;5002743;28;20681;-85
2023/10/20 12:54:14;;;;;;;4.90;4.18;;;;;;;;;;5015718;28;20471;-84
2023/10/20 12:56:41;;;;;;;4.47;3.70;;;;;;;;;;5019243;28;20034;-86
2023/10/20 12:59:07;;;;;;;5.25;4.25;;;;;;;;;;5008488;28;20026;-89
2023/10/20 13:01:33;;;;;;;5.82;3.75;;;;;;;;;;5005479;28;20042;-86
2023/10/20 13:03:59;;;;;;;4.13;3.20;;;;;;;;;;5003065;28;20014;-90
2023/10/20 13:06:26;;;;;;;7.47;4.22;;;;;;;;;;5002216;28;20084;-85
2023/10/20 13:08:52;;;;;;;6.22;4.57;;;;;;;;;;5020248;28;20026;-84
2023/10/20 13:11:18;;;;;;;5.72;4.65;;;;;;;;;;5003605;28;20059;-86
2023/10/20 13:13:44;;;;;;;7.25;6.05;;;;;;;;;;5024337;28;20476;-86
2023/10/20 13:16:10;;;;;;;8.93;6.13;;;;;;;;;;5015697;28;20454;-86
2023/10/20 13:18:36;;;;;;;7.72;6.22;;;;;;;;;;5024839;28;20125;-87
2023/10/20 13:21:05;;;;;;;16.98;11.63;;;;;;;;;;5023090;28;20037;-85
2023/10/20 13:23:31;;;;;;;9.43;5.97;;;;;;;;;;5018107;28;20022;-86
2023/10/20 13:26:04;;;;;;;12.48;7.45;;;;;;;;;;5025447;28;20061;-87
2023/10/20 13:28:31;;;;;;;9.48;7.25;;;;;;;;;;5017168;28;20018;-87
2023/10/20 13:31:04;;;;;;;12.65;8.13;;;;;;;;;;5020077;28;20476;-86
2023/10/20 13:33:32;;;;;;;9.98;8.13;;;;;;;;;;5031229;28;20026;-84
2023/10/20 13:36:05;;;;;;;11.30;8.48;;;;;;;;;;5022645;28;20028;-86
2023/10/20 13:38:32;;;;;;;10.02;8.07;;;;;;;;;;5003342;28;20029;-85
2023/10/20 13:40:58;;;;;;;10.73;7.97;;;;;;;;;;5034867;28;20403;-86
2023/10/20 13:43:25;;;;;;;8.80;7.68;;;;;;;;;;5031648;28;20044;-84
2023/10/20 13:45:52;;;;;;;8.98;7.85;;;;;;;;;;5027689;28;20021;-87
2023/10/20 13:48:18;;;;;;;11.85;8.45;;;;;;;;;;5018610;28;20018;-83
2023/10/20 13:50:44;;;;;;;10.55;7.95;;;;;;;;;;5023028;28;20101;-83
2023/10/20 13:53:13;;;;;;;9.10;7.30;;;;;;;;;;5027087;28;20057;-84
2023/10/20 13:55:39;;;;;;;9.27;7.22;;;;;;;;;;5024267;28;20076;-85
2023/10/20 13:58:05;;;;;;;10.18;8.05;;;;;;;;;;4996050;28;20403;-84
2023/10/20 14:00:35;;;;;;;11.18;8.10;;;;;;;;;;5019448;28;20053;-83
2023/10/20 14:03:03;;;;;;;9.60;7.45;;;;;;;;;;5025543;28;20021;-82
2023/10/20 14:05:32;;;;;;;9.30;7.40;;;;;;;;;;5015789;28;20025;-83
2023/10/20 14:08:01;;;;;;;8.85;7.40;;;;;;;;;;5013837;28;20049;-85
2023/10/20 14:10:27;;;;;;;10.48;8.38;;;;;;;;;;5018413;28;20040;-86
2023/10/20 14:12:54;;;;;;;10.40;6.30;;;;;;;;;;4996333;28;20029;-84
2023/10/20 14:15:20;;;;;;;7.90;6.38;;;;;;;;;;5018158;28;20057;-85
2023/10/20 14:17:47;;;;;;;9.93;6.65;;;;;;;;;;5015932;28;20026;-84
2023/10/20 14:20:14;;;;;;;9.35;7.85;;;;;;;;;;5022274;28;20045;-87
2023/10/20 14:22:40;;;;;;;8.45;6.60;;;;;;;;;;5033974;28;20110;-88
2023/10/20 14:25:06;;;;;;;9.98;7.47;;;;;;;;;;5014373;28;20026;-86
2023/10/20 14:27:36;;;;;;;7.97;5.45;;;;;;;;;;5026589;28;20028;-86
2023/10/20 14:30:03;;;;;;;9.73;7.22;;;;;;;;;;4999865;28;20022;-84
2023/10/20 14:32:29;;;;;;;8.27;6.70;;;;;;;;;;5032211;28;20490;-86
2023/10/20 14:34:57;;;;;;;8.80;7.20;;;;;;;;;;5026407;28;20085;-86
2023/10/20 14:37:23;;;;;;;9.05;7.30;;;;;;;;;;5018780;28;20083;-87
2023/10/20 14:39:49;;;;;;;14.60;7.50;;;;;;;;;;5021684;28;20030;-86
2023/10/20 14:42:16;;;;;;;10.93;8.13;;;;;;;;;;5014257;28;20054;-87
2023/10/20 14:44:42;;;;;;;10.18;8.30;;;;;;;;;;5022438;28;20029;-84
2023/10/20 14:47:08;;;;;;;11.73;7.45;;;;;;;;;;5015787;28;20029;-85
2023/10/20 14:49:34;;;;;;;10.88;8.20;;;;;;;;;;5018106;28;20029;-85
2023/10/20 14:52:00;;;;;;;12.75;8.77;;;;;;;;;;5023211;28;20036;-85